Ashbury, Pennsylvania
Current Conditions -  °F | °C
As of 8:35 PM on Wednesday 26 Nov 2014 (Local Time) from KHZL Reporting Station
Light Snow Light Snow  
Wind Chill: 24°   Ceiling: 500
Heat Index: 32°   Visibility: 5mi
Dew Point: 30°   Wind: 9mph
Humidity: 93%   Direction: 340°NNW
Pressure: 29.9"   Gusts: NA
Location:  41.1114°N, 76.3684°W
Report Text: KHZL 270135Z AUTO 34008KT 5SM -SN OVC005 00/M01 A2990 RMK AO2
Loading
Personal Weather Stations






























Interactive Weather Map New forecast layout! Learn more

10-Day Weather Forecast

Advertisements
Track Severe Weather on mobile